Time;durP1;ratioP1;P1;durP2;ratioP2;P2;SDS_P1;SDS_P2;PMS_P1;PMS_P2;Temp;Humidity;BMP_temperature;BMP_pressure;BME280_temperature;BME280_humidity;BME280_pressure;Samples;Min_cycle;Max_cycle;Signal;HPM_P1;HPM_P2
2023/07/11 00:00:22;;;;;;;4.20;3.30;;;26.30;62.60;;;;;;5057898;28;20321;-74
2023/07/11 00:02:50;;;;;;;3.77;3.17;;;26.30;61.90;;;;;;5071692;28;20314;-74
2023/07/11 00:05:19;;;;;;;4.10;3.60;;;26.30;62.10;;;;;;5061608;28;20189;-74
2023/07/11 00:07:46;;;;;;;5.83;3.33;;;26.20;62.10;;;;;;5071485;28;20222;-74
2023/07/11 00:10:14;;;;;;;4.30;3.70;;;26.20;61.60;;;;;;5067592;28;20647;-74
2023/07/11 00:12:43;;;;;;;4.37;3.97;;;26.20;61.50;;;;;;5071680;28;20284;-74
2023/07/11 00:15:11;;;;;;;5.90;3.60;;;26.10;61.70;;;;;;5072117;28;20632;-74
2023/07/11 00:17:39;;;;;;;5.33;3.63;;;26.00;61.90;;;;;;5071770;28;20204;-74
2023/07/11 00:20:08;;;;;;;4.07;3.60;;;26.00;62.10;;;;;;5070757;28;20292;-74
2023/07/11 00:22:35;;;;;;;5.37;4.03;;;26.00;62.00;;;;;;5071648;28;20208;-74
2023/07/11 00:25:04;;;;;;;5.37;3.50;;;25.90;62.10;;;;;;5071358;28;20194;-74
2023/07/11 00:27:32;;;;;;;3.83;3.43;;;25.90;61.90;;;;;;5071488;28;20235;-74
2023/07/11 00:30:00;;;;;;;4.40;3.67;;;25.90;62.00;;;;;;5071250;28;20569;-74
2023/07/11 00:32:27;;;;;;;3.47;3.17;;;25.90;62.00;;;;;;5071924;28;20251;-74
2023/07/11 00:34:54;;;;;;;3.83;3.43;;;25.80;61.80;;;;;;5071770;28;20209;-74
2023/07/11 00:37:21;;;;;;;4.07;3.50;;;25.80;62.00;;;;;;5071565;28;20206;-74
2023/07/11 00:39:48;;;;;;;4.40;3.87;;;25.70;61.80;;;;;;5071205;28;20202;-73
2023/07/11 00:42:16;;;;;;;4.37;3.47;;;25.80;62.00;;;;;;5067913;28;20283;-74
2023/07/11 00:44:54;;;;;;;3.77;3.47;;;25.80;62.30;;;;;;5068651;28;20741;-73
2023/07/11 00:47:25;;;;;;;4.20;3.77;;;25.80;62.70;;;;;;5071570;28;20287;-74
2023/07/11 00:49:55;;;;;;;4.30;3.70;;;25.70;62.50;;;;;;5070385;28;20232;-74
2023/07/11 00:52:26;;;;;;;4.10;3.50;;;25.70;62.60;;;;;;5067921;28;20209;-73
2023/07/11 00:54:57;;;;;;;4.17;3.77;;;25.70;62.60;;;;;;5074264;28;20190;-73
2023/07/11 00:57:26;;;;;;;3.50;3.20;;;25.60;62.70;;;;;;5074431;28;20695;-74
2023/07/11 00:59:54;;;;;;;3.90;3.50;;;25.60;62.70;;;;;;5074412;28;20202;-73
2023/07/11 01:02:26;;;;;;;3.63;3.33;;;25.50;62.70;;;;;;5066739;28;20222;-74
2023/07/11 01:04:54;;;;;;;3.63;3.33;;;25.50;63.10;;;;;;5071704;28;20273;-74
2023/07/11 01:07:24;;;;;;;4.33;3.80;;;25.50;63.70;;;;;;5068004;28;20563;-74
2023/07/11 01:09:50;;;;;;;5.97;4.00;;;25.50;63.10;;;;;;5073777;28;20221;-74
2023/07/11 01:12:19;;;;;;;5.50;3.80;;;25.40;62.70;;;;;;5073952;28;20233;-74
2023/07/11 01:14:47;;;;;;;5.57;3.10;;;25.40;62.90;;;;;;5074353;28;20240;-74
2023/07/11 01:17:30;;;;;;;4.63;3.47;;;25.40;64.00;;;;;;5074289;28;20267;-74
2023/07/11 01:19:58;;;;;;;4.93;3.70;;;25.30;63.60;;;;;;5070679;28;20721;-73
2023/07/11 01:22:28;;;;;;;3.90;3.30;;;25.40;63.50;;;;;;5065228;28;20197;-73
2023/07/11 01:24:57;;;;;;;5.17;3.30;;;25.30;63.80;;;;;;5074657;28;20314;-73
2023/07/11 01:27:24;;;;;;;5.87;3.77;;;25.20;63.90;;;;;;5074473;28;20288;-73
2023/07/11 01:29:53;;;;;;;4.27;3.60;;;25.30;64.20;;;;;;5074598;28;20295;-74
2023/07/11 01:32:20;;;;;;;3.67;3.37;;;25.30;64.60;;;;;;5074244;28;20230;-74
2023/07/11 01:34:47;;;;;;;3.80;3.43;;;25.30;64.40;;;;;;5074278;28;20210;-73
2023/07/11 01:37:14;;;;;;;4.00;3.60;;;25.30;64.50;;;;;;5074377;28;20723;-74
2023/07/11 01:39:42;;;;;;;4.13;3.73;;;25.30;64.70;;;;;;5074291;28;20193;-73
2023/07/11 01:42:09;;;;;;;4.23;3.77;;;25.30;64.80;;;;;;5071481;28;20710;-73
2023/07/11 01:44:36;;;;;;;4.07;3.40;;;25.20;64.60;;;;;;5054284;28;20728;-74
2023/07/11 01:47:03;;;;;;;4.13;3.73;;;25.20;64.80;;;;;;5054422;28;20537;-74
2023/07/11 01:49:30;;;;;;;4.20;3.80;;;25.20;64.90;;;;;;5055021;28;20292;-73
2023/07/11 01:52:06;;;;;;;4.43;3.70;;;25.10;64.90;;;;;;5069783;28;20227;-74
2023/07/11 01:54:33;;;;;;;4.37;3.60;;;25.10;65.30;;;;;;5054221;28;20332;-74
2023/07/11 01:57:01;;;;;;;4.50;3.60;;;25.10;65.00;;;;;;5069677;28;20279;-73
2023/07/11 01:59:29;;;;;;;3.97;3.57;;;25.10;65.00;;;;;;5073675;28;20215;-74
2023/07/11 02:01:56;;;;;;;6.67;3.93;;;25.00;65.10;;;;;;5074059;28;20209;-74
2023/07/11 02:04:23;;;;;;;6.50;3.37;;;25.00;64.90;;;;;;5073482;28;20632;-73
2023/07/11 02:06:50;;;;;;;5.77;3.57;;;24.90;64.80;;;;;;5073974;28;20200;-74
2023/07/11 02:09:17;;;;;;;3.77;3.30;;;24.90;65.00;;;;;;5073519;28;20231;-74
2023/07/11 02:11:44;;;;;;;3.83;3.43;;;24.90;65.00;;;;;;5073758;28;20224;-74
2023/07/11 02:14:15;;;;;;;4.73;3.50;;;24.90;65.20;;;;;;5073366;28;20738;-73
2023/07/11 02:16:44;;;;;;;5.60;3.57;;;24.80;65.50;;;;;;5073551;28;20229;-73
2023/07/11 02:19:11;;;;;;;4.70;3.40;;;24.80;65.50;;;;;;5073479;28;20612;-73
2023/07/11 02:21:38;;;;;;;4.03;3.57;;;24.80;65.70;;;;;;5073538;28;20197;-73
2023/07/11 02:24:07;;;;;;;3.97;3.57;;;24.80;65.90;;;;;;5072823;28;20304;-72
2023/07/11 02:26:34;;;;;;;3.53;3.13;;;24.80;65.90;;;;;;5073232;28;20304;-75
2023/07/11 02:29:00;;;;;;;3.67;3.37;;;24.70;65.50;;;;;;5072543;28;20319;-73
2023/07/11 02:31:30;;;;;;;5.77;3.80;;;24.70;65.60;;;;;;5073184;28;20568;-73
2023/07/11 02:33:58;;;;;;;4.13;3.73;;;24.70;66.30;;;;;;5072563;28;20561;-74
2023/07/11 02:36:25;;;;;;;4.93;4.17;;;24.60;65.50;;;;;;5073078;28;20215;-74
2023/07/11 02:38:52;;;;;;;4.07;3.67;;;24.60;65.60;;;;;;5072347;28;20205;-73
2023/07/11 02:41:19;;;;;;;3.83;3.53;;;24.60;65.40;;;;;;5072266;28;20205;-72
2023/07/11 02:43:47;;;;;;;5.93;3.90;;;24.50;65.50;;;;;;5072581;28;20209;-72
2023/07/11 02:46:14;;;;;;;4.27;3.90;;;24.50;65.60;;;;;;5072009;28;20201;-72
2023/07/11 02:48:43;;;;;;;4.33;3.63;;;24.50;65.70;;;;;;5072704;28;20577;-72
2023/07/11 02:51:10;;;;;;;5.50;4.15;;;24.50;66.00;;;;;;5072281;28;20209;-72
2023/07/11 02:53:37;;;;;;;4.87;3.80;;;24.40;65.90;;;;;;5072093;28;20205;-73
2023/07/11 02:56:05;;;;;;;4.17;3.77;;;24.40;65.80;;;;;;5073781;28;20212;-72
2023/07/11 02:58:32;;;;;;;4.63;3.53;;;24.40;66.00;;;;;;5055868;28;20259;-72
2023/07/11 03:01:01;;;;;;;4.10;3.70;;;24.40;66.90;;;;;;5036142;28;20730;-72
2023/07/11 03:03:28;;;;;;;3.60;3.30;;;24.40;66.30;;;;;;5068428;28;20197;-74
2023/07/11 03:05:57;;;;;;;4.17;3.77;;;24.30;66.20;;;;;;5071573;28;20869;-72
2023/07/11 03:08:25;;;;;;;5.40;3.60;;;24.30;66.60;;;;;;5072536;28;20287;-74
2023/07/11 03:10:52;;;;;;;3.80;3.50;;;24.20;66.60;;;;;;5053467;28;20652;-72
2023/07/11 03:13:19;;;;;;;4.43;3.40;;;24.20;66.50;;;;;;5071916;28;20234;-72
2023/07/11 03:15:46;;;;;;;4.47;3.90;;;24.10;66.40;;;;;;5051432;28;20209;-74
2023/07/11 03:18:14;;;;;;;4.50;3.70;;;24.20;66.60;;;;;;5058308;28;20732;-74
2023/07/11 03:20:43;;;;;;;4.57;4.00;;;24.10;66.90;;;;;;5072520;28;20877;-72
2023/07/11 03:23:14;;;;;;;4.83;4.33;;;24.10;67.00;;;;;;5072665;28;20201;-74
2023/07/11 03:25:41;;;;;;;3.67;3.37;;;24.10;67.30;;;;;;5072198;28;20213;-72
2023/07/11 03:28:09;;;;;;;4.63;3.83;;;24.10;67.30;;;;;;5072404;28;20208;-72
2023/07/11 03:30:37;;;;;;;4.00;3.70;;;24.00;67.30;;;;;;5071965;28;20231;-72
2023/07/11 03:33:05;;;;;;;5.10;3.97;;;24.00;67.50;;;;;;5072287;28;20231;-72
2023/07/11 03:35:32;;;;;;;4.63;4.23;;;24.00;67.50;;;;;;5071661;28;20221;-72
2023/07/11 03:37:59;;;;;;;5.00;3.67;;;24.10;67.60;;;;;;5072140;28;20205;-72
2023/07/11 03:40:29;;;;;;;4.17;3.77;;;24.00;67.50;;;;;;5071911;28;20759;-74
2023/07/11 03:42:57;;;;;;;3.73;3.33;;;24.00;67.50;;;;;;5072102;28;20515;-74
2023/07/11 03:45:24;;;;;;;4.67;3.47;;;24.00;67.60;;;;;;5071891;28;20231;-74
2023/07/11 03:47:50;;;;;;;4.27;3.80;;;24.00;67.60;;;;;;5071666;28;20773;-73
2023/07/11 03:50:17;;;;;;;4.97;3.87;;;24.00;67.70;;;;;;5071101;28;20211;-74
2023/07/11 03:52:44;;;;;;;4.93;4.20;;;24.00;67.80;;;;;;5067416;28;20320;-73
2023/07/11 03:55:11;;;;;;;4.33;3.93;;;24.00;67.90;;;;;;5071272;28;20197;-74
2023/07/11 03:57:40;;;;;;;4.53;4.13;;;24.00;68.10;;;;;;5071651;28;20197;-74
2023/07/11 04:00:09;;;;;;;7.53;4.43;;;24.00;68.30;;;;;;5063107;28;20239;-74
2023/07/11 04:02:36;;;;;;;6.70;4.20;;;23.90;68.20;;;;;;5070870;28;20201;-74
2023/07/11 04:05:03;;;;;;;6.23;4.40;;;23.90;68.10;;;;;;5071340;28;20645;-74
2023/07/11 04:07:30;;;;;;;5.60;4.00;;;24.00;68.20;;;;;;5071021;28;20211;-74
2023/07/11 04:09:57;;;;;;;5.93;4.27;;;24.00;68.30;;;;;;5071245;28;20200;-73
2023/07/11 04:12:24;;;;;;;6.20;4.40;;;24.00;68.20;;;;;;5071462;28;20227;-74
2023/07/11 04:14:52;;;;;;;5.63;4.53;;;24.00;68.20;;;;;;5070997;28;20623;-73
2023/07/11 04:17:19;;;;;;;6.57;4.37;;;24.00;68.30;;;;;;5063668;28;20231;-73
2023/07/11 04:19:45;;;;;;;8.20;4.30;;;24.00;68.30;;;;;;5071363;28;20311;-74
2023/07/11 04:22:12;;;;;;;5.00;4.47;;;24.00;68.40;;;;;;5071122;28;20645;-73
2023/07/11 04:24:39;;;;;;;7.43;3.70;;;24.00;68.40;;;;;;5071059;28;20676;-73
2023/07/11 04:27:06;;;;;;;7.10;4.77;;;24.10;68.80;;;;;;5070751;28;20722;-73
2023/07/11 04:29:35;;;;;;;5.37;4.30;;;24.00;68.70;;;;;;5074260;28;20399;-73
2023/07/11 04:32:03;;;;;;;4.93;4.40;;;24.10;69.00;;;;;;5075007;28;20213;-73
2023/07/11 04:34:30;;;;;;;8.10;4.57;;;24.10;69.10;;;;;;5074873;28;20205;-73
2023/07/11 04:36:57;;;;;;;4.80;4.30;;;24.10;69.20;;;;;;5074933;28;20227;-73
2023/07/11 04:39:24;;;;;;;8.07;5.17;;;24.10;69.20;;;;;;5074958;28;20212;-73
2023/07/11 04:41:51;;;;;;;9.63;4.83;;;24.20;69.30;;;;;;5074203;28;20728;-73
2023/07/11 04:44:17;;;;;;;6.27;5.00;;;24.20;69.30;;;;;;5074714;28;20228;-73
2023/07/11 04:46:44;;;;;;;7.13;4.80;;;24.20;69.80;;;;;;5074620;28;20312;-73
2023/07/11 04:49:12;;;;;;;8.97;4.67;;;24.30;69.90;;;;;;5074574;28;20576;-73
2023/07/11 04:51:39;;;;;;;8.43;4.97;;;24.30;69.80;;;;;;5074991;28;20287;-73
2023/07/11 04:54:06;;;;;;;6.37;4.77;;;24.30;69.50;;;;;;5074631;28;20224;-73
2023/07/11 04:56:33;;;;;;;7.57;4.73;;;24.40;69.80;;;;;;5074499;28;20683;-73
2023/07/11 04:59:00;;;;;;;8.50;5.17;;;24.40;69.70;;;;;;5072797;28;20227;-73
2023/07/11 05:01:27;;;;;;;13.00;5.93;;;24.40;70.60;;;;;;5073748;28;20224;-72
2023/07/11 05:03:54;;;;;;;9.13;5.67;;;24.50;69.90;;;;;;5064402;28;20232;-72
2023/07/11 05:06:22;;;;;;;9.27;5.67;;;24.60;70.00;;;;;;5065406;28;20299;-72
2023/07/11 05:08:49;;;;;;;16.00;6.50;;;24.60;70.10;;;;;;5074206;28;20207;-72
2023/07/11 05:11:17;;;;;;;11.07;6.00;;;24.60;70.40;;;;;;5074377;28;20211;-72
2023/07/11 05:13:46;;;;;;;15.27;6.60;;;24.60;70.60;;;;;;5074364;28;20335;-73
2023/07/11 05:16:15;;;;;;;10.63;6.23;;;24.60;71.30;;;;;;5074726;28;20211;-74
2023/07/11 05:18:42;;;;;;;8.93;5.70;;;24.60;71.40;;;;;;5054610;28;20697;-74
2023/07/11 05:21:11;;;;;;;8.20;5.23;;;24.70;71.70;;;;;;5054618;28;20688;-74
2023/07/11 05:23:39;;;;;;;8.03;6.20;;;24.70;71.20;;;;;;5054482;28;20213;-73
2023/07/11 05:26:07;;;;;;;5.87;5.13;;;24.80;71.40;;;;;;5054650;28;20212;-72
2023/07/11 05:28:34;;;;;;;6.23;4.97;;;24.80;70.80;;;;;;5070245;28;20209;-73
2023/07/11 05:31:03;;;;;;;6.00;4.10;;;24.80;70.40;;;;;;5074296;28;20248;-73
2023/07/11 05:33:30;;;;;;;6.53;4.20;;;24.90;69.50;;;;;;5074268;28;20223;-73
2023/07/11 05:36:07;;;;;;;6.07;4.47;;;25.00;69.20;;;;;;5074463;28;20239;-73
2023/07/11 05:38:34;;;;;;;5.83;4.00;;;25.00;69.10;;;;;;5074285;28;20276;-73
2023/07/11 05:41:03;;;;;;;7.03;4.37;;;25.10;69.00;;;;;;5072659;28;20725;-73
2023/07/11 05:43:30;;;;;;;4.83;4.10;;;25.20;68.40;;;;;;5066002;28;20189;-74
2023/07/11 05:45:57;;;;;;;4.70;4.13;;;25.30;68.90;;;;;;5070871;28;20665;-72
2023/07/11 05:48:23;;;;;;;4.20;3.80;;;25.30;69.20;;;;;;5069047;28;20220;-73
2023/07/11 05:50:59;;;;;;;5.10;4.23;;;25.40;68.80;;;;;;5073997;28;20212;-72
2023/07/11 05:53:26;;;;;;;4.30;3.90;;;25.40;68.20;;;;;;5073653;28;20227;-72
2023/07/11 05:55:53;;;;;;;6.80;4.30;;;25.50;67.90;;;;;;5074015;28;20297;-72
2023/07/11 05:58:21;;;;;;;4.33;3.80;;;25.60;67.90;;;;;;5074115;28;20206;-72
2023/07/11 06:00:48;;;;;;;6.37;4.50;;;25.60;67.90;;;;;;5074003;28;20541;-72
2023/07/11 06:03:15;;;;;;;5.10;4.20;;;25.70;67.10;;;;;;5073686;28;20290;-72
2023/07/11 06:05:42;;;;;;;4.47;3.90;;;25.80;67.30;;;;;;5073753;28;20225;-72
2023/07/11 06:08:09;;;;;;;5.17;3.97;;;25.90;65.80;;;;;;5073363;28;20302;-68
2023/07/11 06:10:37;;;;;;;4.30;3.83;;;25.90;64.80;;;;;;5071469;28;20705;-68
2023/07/11 06:13:04;;;;;;;4.80;3.70;;;26.00;65.50;;;;;;5073163;28;20265;-65
2023/07/11 06:15:32;;;;;;;5.80;4.40;;;26.10;66.20;;;;;;5071255;28;20213;-68
2023/07/11 06:17:59;;;;;;;5.17;4.67;;;26.20;66.10;;;;;;5071827;28;20225;-68
2023/07/11 06:20:26;;;;;;;4.73;3.70;;;26.30;63.50;;;;;;5064260;28;20237;-67
2023/07/11 06:22:54;;;;;;;5.43;4.40;;;26.30;62.60;;;;;;5070130;28;20289;-68
2023/07/11 06:25:21;;;;;;;4.60;4.10;;;26.30;62.20;;;;;;5072082;28;20209;-68
2023/07/11 06:27:48;;;;;;;6.73;4.10;;;26.50;61.90;;;;;;5072155;28;20213;-69
2023/07/11 06:30:15;;;;;;;5.37;4.77;;;26.50;61.60;;;;;;5071328;28;20249;-69
2023/07/11 06:32:43;;;;;;;5.87;4.20;;;26.70;62.00;;;;;;5071437;28;20678;-69
2023/07/11 06:35:10;;;;;;;6.00;4.37;;;26.70;60.90;;;;;;5072606;28;20298;-68
2023/07/11 06:37:37;;;;;;;4.33;3.90;;;26.90;61.60;;;;;;5071718;28;20202;-68
2023/07/11 06:40:08;;;;;;;6.17;4.33;;;26.90;60.80;;;;;;5071103;28;20307;-69
2023/07/11 06:42:35;;;;;;;7.80;4.30;;;27.00;60.40;;;;;;5065343;28;20225;-67
2023/07/11 06:45:02;;;;;;;4.43;4.03;;;27.00;60.00;;;;;;5051398;28;20834;-69
2023/07/11 06:47:29;;;;;;;4.47;4.07;;;27.10;59.60;;;;;;5071255;28;20264;-68
2023/07/11 06:49:57;;;;;;;7.80;4.17;;;27.20;59.50;;;;;;5070864;28;20232;-68
2023/07/11 06:52:24;;;;;;;5.37;4.00;;;27.30;59.60;;;;;;5071382;28;20202;-67
2023/07/11 06:54:51;;;;;;;5.23;4.00;;;27.40;59.90;;;;;;5071893;28;20202;-67
2023/07/11 06:57:18;;;;;;;5.63;4.20;;;27.50;59.60;;;;;;5071116;28;20699;-67
2023/07/11 06:59:46;;;;;;;4.77;4.37;;;27.60;59.60;;;;;;5070898;28;20230;-67
2023/07/11 07:02:13;;;;;;;6.40;4.40;;;27.70;59.50;;;;;;5069577;28;20223;-67
2023/07/11 07:04:40;;;;;;;4.87;4.07;;;27.80;59.10;;;;;;5070885;28;20292;-67
2023/07/11 07:07:08;;;;;;;4.97;4.33;;;27.90;59.10;;;;;;5070915;28;20211;-69
2023/07/11 07:09:35;;;;;;;6.83;3.93;;;28.00;58.40;;;;;;5072094;28;20207;-69
2023/07/11 07:12:02;;;;;;;4.73;4.17;;;28.00;57.50;;;;;;5071391;28;20215;-69
2023/07/11 07:14:30;;;;;;;4.60;4.10;;;28.10;57.90;;;;;;5072034;28;20346;-69
2023/07/11 07:16:57;;;;;;;5.90;4.53;;;28.20;57.50;;;;;;5072499;28;20585;-68
2023/07/11 07:19:23;;;;;;;5.27;4.23;;;28.30;56.70;;;;;;5071095;28;20220;-69
2023/07/11 07:21:50;;;;;;;5.17;3.90;;;28.40;57.00;;;;;;5071401;28;20256;-69
2023/07/11 07:24:19;;;;;;;6.63;4.17;;;28.50;57.60;;;;;;5071752;28;20279;-72
2023/07/11 07:26:45;;;;;;;4.93;4.13;;;28.50;57.10;;;;;;5072008;28;20215;-72
2023/07/11 07:29:12;;;;;;;5.47;4.50;;;28.60;56.20;;;;;;5071943;28;20199;-72
2023/07/11 07:31:39;;;;;;;6.10;4.10;;;28.60;56.10;;;;;;5071829;28;20197;-72
2023/07/11 07:34:07;;;;;;;5.17;4.17;;;28.70;56.00;;;;;;5071890;28;20309;-72
2023/07/11 07:36:34;;;;;;;5.27;4.20;;;28.80;55.50;;;;;;5071826;28;20219;-72
2023/07/11 07:39:01;;;;;;;5.10;3.80;;;28.80;55.40;;;;;;5072091;28;20204;-72
2023/07/11 07:41:29;;;;;;;5.07;3.97;;;28.90;56.30;;;;;;5071433;28;20291;-72
2023/07/11 07:43:56;;;;;;;4.97;4.20;;;29.00;55.60;;;;;;5054525;28;20197;-72
2023/07/11 07:46:23;;;;;;;5.33;4.20;;;29.00;55.10;;;;;;5052197;28;20208;-72
2023/07/11 07:48:50;;;;;;;5.80;4.20;;;29.10;54.60;;;;;;5051925;28;20209;-72
2023/07/11 07:51:19;;;;;;;4.67;4.23;;;29.10;54.70;;;;;;5054140;28;20236;-72
2023/07/11 07:53:47;;;;;;;5.00;4.30;;;29.10;55.00;;;;;;5071581;28;20247;-72
2023/07/11 07:56:16;;;;;;;4.87;4.17;;;29.30;55.80;;;;;;5072064;28;20181;-73
2023/07/11 07:58:45;;;;;;;4.60;4.20;;;29.40;56.00;;;;;;5071886;28;20209;-73
2023/07/11 08:01:12;;;;;;;5.20;4.40;;;29.50;55.60;;;;;;5071195;28;20235;-73
2023/07/11 08:03:40;;;;;;;8.90;4.60;;;29.70;55.20;;;;;;5075717;28;20230;-72
2023/07/11 08:06:08;;;;;;;5.20;4.23;;;29.80;54.20;;;;;;5075563;28;20212;-73
2023/07/11 08:08:35;;;;;;;6.47;4.50;;;29.90;53.80;;;;;;5075483;28;20699;-73
2023/07/11 08:11:02;;;;;;;5.27;4.10;;;29.90;54.50;;;;;;5075811;28;20291;-71
2023/07/11 08:13:29;;;;;;;5.53;4.57;;;30.00;54.40;;;;;;5075280;28;20223;-71
2023/07/11 08:15:58;;;;;;;5.00;4.27;;;30.10;54.00;;;;;;5075656;28;20207;-71
2023/07/11 08:18:25;;;;;;;5.10;4.60;;;30.20;53.50;;;;;;5074895;28;20212;-71
2023/07/11 08:20:51;;;;;;;4.97;4.57;;;30.30;53.60;;;;;;5074314;28;20232;-73
2023/07/11 08:23:18;;;;;;;5.13;4.37;;;30.50;53.50;;;;;;5075228;28;20246;-71
2023/07/11 08:25:45;;;;;;;5.93;4.93;;;30.60;53.20;;;;;;5075253;28;20311;-71
2023/07/11 08:28:12;;;;;;;5.93;4.47;;;30.60;52.80;;;;;;5074479;28;20224;-73
2023/07/11 08:30:39;;;;;;;6.67;4.67;;;30.70;52.80;;;;;;5075145;28;20205;-72
2023/07/11 08:33:08;;;;;;;5.73;4.70;;;30.80;53.00;;;;;;5075339;28;20250;-71
2023/07/11 08:35:34;;;;;;;5.70;4.50;;;30.80;52.40;;;;;;5074755;28;20217;-71
2023/07/11 08:38:03;;;;;;;5.63;4.27;;;30.90;52.50;;;;;;5075110;28;20232;-71
2023/07/11 08:40:33;;;;;;;5.17;4.63;;;31.00;52.60;;;;;;5075121;28;20315;-73
2023/07/11 08:43:04;;;;;;;5.37;4.63;;;31.10;52.60;;;;;;5075187;28;20213;-74
2023/07/11 08:45:35;;;;;;;5.70;4.30;;;31.20;52.70;;;;;;5074832;28;20186;-74
2023/07/11 08:48:06;;;;;;;5.00;4.43;;;31.20;51.40;;;;;;5074983;28;20228;-73
2023/07/11 08:50:45;;;;;;;5.93;4.70;;;31.30;52.20;;;;;;5074814;28;20290;-73
2023/07/11 08:53:14;;;;;;;5.40;4.70;;;31.40;52.10;;;;;;5074820;28;20232;-73
2023/07/11 08:55:45;;;;;;;5.60;5.00;;;31.50;52.00;;;;;;5074659;28;20660;-73
2023/07/11 08:58:15;;;;;;;6.17;4.80;;;31.70;52.70;;;;;;5075068;28;20319;-73
2023/07/11 09:00:46;;;;;;;6.07;5.07;;;31.80;50.50;;;;;;5074736;28;20255;-71
2023/07/11 09:03:22;;;;;;;5.10;4.63;;;31.80;50.60;;;;;;5074632;28;20219;-74
2023/07/11 09:05:57;;;;;;;8.23;4.90;;;31.90;51.20;;;;;;5074327;28;20345;-73
2023/07/11 09:08:24;;;;;;;5.80;4.97;;;32.00;49.90;;;;;;5074741;28;20259;-73
2023/07/11 09:11:01;;;;;;;5.50;5.00;;;32.00;50.10;;;;;;5073793;28;20818;-74
2023/07/11 09:13:48;;;;;;;6.27;5.20;;;32.10;50.30;;;;;;5073560;28;20224;-73
2023/07/11 09:16:25;;;;;;;7.00;4.60;;;32.30;50.50;;;;;;5074375;28;20230;-73
2023/07/11 09:19:01;;;;;;;5.77;4.60;;;32.30;50.60;;;;;;5074408;28;20191;-71
2023/07/11 09:21:40;;;;;;;6.97;4.67;;;32.50;49.80;;;;;;5074416;28;20545;-71
2023/07/11 09:24:19;;;;;;;5.97;4.80;;;32.40;49.60;;;;;;5073870;28;20282;-72
2023/07/11 09:26:48;;;;;;;5.20;4.70;;;32.60;51.80;;;;;;5074007;28;20234;-73
2023/07/11 09:29:17;;;;;;;5.83;4.90;;;32.70;50.70;;;;;;5073988;28;20296;-71
2023/07/11 09:31:50;;;;;;;6.00;5.10;;;32.80;49.30;;;;;;5073716;28;20207;-74
2023/07/11 09:34:22;;;;;;;6.13;4.77;;;32.90;48.90;;;;;;5074188;28;20236;-72
2023/07/11 09:36:51;;;;;;;5.30;4.80;;;32.90;49.10;;;;;;5073757;28;20209;-73
2023/07/11 09:39:27;;;;;;;5.53;4.87;;;33.00;50.00;;;;;;5059672;28;20205;-72
2023/07/11 09:41:58;;;;;;;5.40;4.90;;;33.20;49.00;;;;;;5073667;28;20201;-73
2023/07/11 09:44:25;;;;;;;6.07;5.47;;;33.30;49.30;;;;;;5054245;28;20196;-71
2023/07/11 09:46:52;;;;;;;5.13;4.63;;;33.30;48.70;;;;;;5053522;28;20325;-72
2023/07/11 09:49:24;;;;;;;6.80;5.33;;;33.40;49.40;;;;;;5061355;28;20693;-71
2023/07/11 09:51:56;;;;;;;6.93;5.03;;;33.50;48.70;;;;;;5073112;28;20208;-72
2023/07/11 09:54:25;;;;;;;6.73;4.90;;;33.50;48.50;;;;;;5073848;28;20219;-71
2023/07/11 09:56:52;;;;;;;5.47;4.97;;;33.70;48.70;;;;;;5072945;28;20214;-70
2023/07/11 09:59:21;;;;;;;5.67;5.07;;;33.80;48.90;;;;;;5073608;28;20244;-73
2023/07/11 10:01:53;;;;;;;5.93;5.43;;;33.90;48.50;;;;;;5073168;28;20731;-73
2023/07/11 10:04:24;;;;;;;6.43;5.83;;;33.80;48.50;;;;;;5073245;28;20232;-72
2023/07/11 10:06:57;;;;;;;6.63;5.10;;;33.90;48.40;;;;;;5073466;28;20197;-73
2023/07/11 10:09:27;;;;;;;6.17;5.50;;;34.00;48.90;;;;;;5073598;28;20189;-72
2023/07/11 10:11:55;;;;;;;6.27;5.47;;;34.00;48.70;;;;;;5073293;28;20229;-72
2023/07/11 10:14:27;;;;;;;6.23;4.87;;;34.10;48.30;;;;;;5073560;28;20270;-71
2023/07/11 10:16:56;;;;;;;7.47;5.47;;;34.10;48.10;;;;;;5072853;28;20264;-72
2023/07/11 10:19:23;;;;;;;6.43;5.40;;;34.20;47.90;;;;;;5073140;28;20193;-72
2023/07/11 10:21:57;;;;;;;5.40;4.90;;;34.30;47.80;;;;;;5073469;28;20212;-72
2023/07/11 10:24:26;;;;;;;6.17;5.53;;;34.30;48.80;;;;;;5068671;28;20201;-72
2023/07/11 10:27:01;;;;;;;6.30;5.40;;;34.50;48.00;;;;;;5071578;28;20198;-72
2023/07/11 10:29:32;;;;;;;5.70;5.20;;;34.60;47.10;;;;;;5071997;28;20231;-72
2023/07/11 10:32:03;;;;;;;6.33;5.73;;;34.60;47.00;;;;;;5071584;28;20211;-73
2023/07/11 10:34:36;;;;;;;6.83;5.37;;;34.70;46.60;;;;;;5071770;28;20803;-71
2023/07/11 10:37:12;;;;;;;8.87;5.43;;;34.60;47.00;;;;;;5072096;28;20189;-73
2023/07/11 10:39:44;;;;;;;8.53;5.33;;;34.70;46.70;;;;;;5071744;28;20204;-73
2023/07/11 10:42:24;;;;;;;8.93;5.20;;;34.80;46.70;;;;;;5068921;28;20329;-72
2023/07/11 10:44:59;;;;;;;6.17;5.37;;;34.90;46.70;;;;;;5051712;28;20186;-72
2023/07/11 10:47:45;;;;;;;8.60;5.20;;;34.90;46.20;;;;;;5067060;28;20221;-72
2023/07/11 10:50:34;;;;;;;8.37;5.30;;;35.00;46.60;;;;;;5071333;28;20218;-72
2023/07/11 10:53:21;;;;;;;5.93;4.80;;;35.10;45.90;;;;;;5071323;28;20277;-72
2023/07/11 10:55:54;;;;;;;6.03;5.20;;;35.10;45.80;;;;;;5072279;28;20785;-73
2023/07/11 10:58:24;;;;;;;5.40;4.97;;;35.10;45.60;;;;;;5072555;28;20209;-73
2023/07/11 11:01:07;;;;;;;7.53;5.93;;;35.20;45.70;;;;;;5071972;28;20230;-73
2023/07/11 11:03:38;;;;;;;5.93;4.97;;;35.30;45.30;;;;;;5071978;28;20194;-70
2023/07/11 11:06:29;;;;;;;7.83;5.40;;;35.40;45.60;;;;;;5072232;28;20202;-72
2023/07/11 11:09:08;;;;;;;6.27;5.67;;;35.40;45.30;;;;;;5069784;28;20205;-72
2023/07/11 11:11:46;;;;;;;5.80;4.93;;;35.60;45.80;;;;;;5072529;28;20597;-72
2023/07/11 11:14:16;;;;;;;5.50;5.00;;;35.70;44.80;;;;;;5071513;28;20232;-72
2023/07/11 11:16:54;;;;;;;5.40;4.77;;;35.70;45.30;;;;;;5072167;28;20193;-72
2023/07/11 11:19:35;;;;;;;5.97;5.33;;;35.70;44.40;;;;;;5071882;28;20635;-73
2023/07/11 11:22:11;;;;;;;5.20;4.70;;;35.70;44.80;;;;;;5072299;28;20259;-72
2023/07/11 11:24:48;;;;;;;6.50;5.47;;;35.70;44.30;;;;;;5072426;28;20193;-72
2023/07/11 11:27:29;;;;;;;7.07;5.40;;;35.70;44.40;;;;;;5072419;28;20192;-72
2023/07/11 11:30:06;;;;;;;5.80;5.20;;;35.70;44.30;;;;;;5071643;28;20187;-72
2023/07/11 11:32:40;;;;;;;8.47;5.93;;;35.80;44.60;;;;;;5071836;28;20223;-72
2023/07/11 11:35:28;;;;;;;6.67;5.37;;;35.80;44.40;;;;;;5072395;28;20209;-71
2023/07/11 11:38:09;;;;;;;6.40;5.30;;;36.00;44.30;;;;;;5070374;28;20189;-72
2023/07/11 11:40:40;;;;;;;6.93;5.90;;;36.10;44.10;;;;;;5071208;28;20196;-71
2023/07/11 11:43:11;;;;;;;7.73;5.63;;;36.10;45.20;;;;;;5066244;28;20253;-71
2023/07/11 11:45:40;;;;;;;5.83;5.27;;;36.20;44.30;;;;;;5062098;28;20231;-72
2023/07/11 11:48:13;;;;;;;5.90;5.30;;;36.20;44.10;;;;;;5057493;28;20716;-72
2023/07/11 11:50:42;;;;;;;6.37;5.33;;;36.20;44.50;;;;;;5071725;28;20200;-72
2023/07/11 11:53:31;;;;;;;7.07;5.77;;;36.40;45.10;;;;;;5071109;28;20228;-71
2023/07/11 11:56:01;;;;;;;5.63;5.00;;;36.30;44.00;;;;;;5068453;28;20303;-72
2023/07/11 11:58:30;;;;;;;7.83;5.37;;;36.50;44.00;;;;;;5068956;28;20259;-72
2023/07/11 12:00:58;;;;;;;6.13;5.20;;;36.60;44.00;;;;;;5071242;28;20205;-72
2023/07/11 12:03:29;;;;;;;5.63;5.13;;;36.70;44.00;;;;;;5071745;28;20312;-72
2023/07/11 12:05:58;;;;;;;9.20;5.87;;;36.70;43.70;;;;;;5071340;28;20264;-72
2023/07/11 12:08:31;;;;;;;5.43;4.93;;;36.70;43.50;;;;;;5071878;28;20235;-72
2023/07/11 12:11:20;;;;;;;6.00;5.50;;;36.70;43.70;;;;;;5071578;28;20196;-72
2023/07/11 12:14:25;;;;;;;6.10;5.13;;;36.70;43.00;;;;;;5071428;28;20224;-71
2023/07/11 12:16:53;;;;;;;6.13;5.53;;;36.60;43.90;;;;;;5071361;28;20201;-72
2023/07/11 12:19:29;;;;;;;6.17;5.23;;;36.80;45.30;;;;;;5071530;28;20571;-72
2023/07/11 12:22:04;;;;;;;5.80;5.20;;;36.90;44.00;;;;;;5058043;28;20198;-72
2023/07/11 12:24:45;;;;;;;5.67;5.13;;;37.10;44.10;;;;;;5071211;28;20184;-72
2023/07/11 12:27:43;;;;;;;6.27;5.70;;;37.10;43.00;;;;;;5060307;28;20329;-71
2023/07/11 12:30:43;;;;;;;8.80;5.67;;;37.20;44.50;;;;;;5062637;28;20220;-72
2023/07/11 12:33:42;;;;;;;6.17;5.53;;;37.10;42.90;;;;;;5052968;28;20215;-72
2023/07/11 12:36:33;;;;;;;5.80;5.30;;;37.00;43.60;;;;;;5058198;28;20303;-72
2023/07/11 12:39:10;;;;;;;6.27;5.63;;;37.10;44.60;;;;;;5071625;28;20192;-72
2023/07/11 12:41:43;;;;;;;6.97;5.53;;;37.20;43.30;;;;;;5070945;28;20235;-72
2023/07/11 12:44:13;;;;;;;6.27;5.67;;;37.20;43.20;;;;;;5066961;28;20190;-72
2023/07/11 12:46:44;;;;;;;7.60;5.40;;;37.10;43.00;;;;;;5071396;28;20292;-73
2023/07/11 12:49:17;;;;;;;6.87;5.53;;;37.20;43.90;;;;;;5049641;28;20216;-72
2023/07/11 12:51:44;;;;;;;6.50;5.53;;;37.20;42.60;;;;;;5065354;28;20192;-72
2023/07/11 12:54:17;;;;;;;6.13;5.47;;;37.10;42.90;;;;;;5074289;28;20197;-72
2023/07/11 12:56:45;;;;;;;6.20;5.60;;;37.20;43.10;;;;;;5074460;28;20219;-72
2023/07/11 12:59:21;;;;;;;6.83;5.37;;;37.40;42.80;;;;;;5074456;28;20209;-72